Time;durP1;ratioP1;P1;durP2;ratioP2;P2;SDS_P1;SDS_P2;PMS_P1;PMS_P2;Temp;Humidity;BMP_temperature;BMP_pressure;BME280_temperature;BME280_humidity;BME280_pressure;Samples;Min_cycle;Max_cycle;Signal;HPM_P1;HPM_P2
2023/12/20 00:04:36;;;;;;;2.07;1.70;;;13.70;99.90;;;;;;10364890;28;20234;-82
2023/12/20 00:09:39;;;;;;;3.40;2.47;;;13.50;99.90;;;;;;10363479;28;20898;-81
2023/12/20 00:14:42;;;;;;;3.30;3.00;;;13.30;99.90;;;;;;10364217;28;20322;-82
2023/12/20 00:19:44;;;;;;;3.10;2.10;;;13.80;99.90;;;;;;10367050;28;20228;-82
2023/12/20 00:24:47;;;;;;;2.60;2.40;;;13.90;99.90;;;;;;10359969;28;20227;-82
2023/12/20 00:29:50;;;;;;;2.53;1.60;;;13.50;99.90;;;;;;10362025;28;20255;-82
2023/12/20 00:34:52;;;;;;;2.67;2.00;;;13.80;99.90;;;;;;10363291;28;21026;-82
2023/12/20 00:39:55;;;;;;;2.17;1.57;;;13.80;99.90;;;;;;10364693;28;20224;-81
2023/12/20 00:44:58;;;;;;;2.30;1.90;;;13.60;99.90;;;;;;10364169;28;20259;-82
2023/12/20 00:50:00;;;;;;;2.23;1.90;;;13.60;99.90;;;;;;10365929;28;20312;-82
2023/12/20 00:55:04;;;;;;;2.87;2.03;;;13.90;99.90;;;;;;10361378;28;20251;-82
2023/12/20 01:00:09;;;;;;;3.33;2.23;;;13.60;99.90;;;;;;10368046;28;20286;-82
2023/12/20 01:05:12;;;;;;;4.30;1.90;;;13.90;99.90;;;;;;10367469;28;20239;-81
2023/12/20 01:10:14;;;;;;;2.20;1.97;;;14.10;99.90;;;;;;10366404;28;20228;-81
2023/12/20 01:15:17;;;;;;;1.97;1.77;;;13.60;99.90;;;;;;10375541;28;20247;-81
2023/12/20 01:20:20;;;;;;;2.47;2.20;;;13.30;99.90;;;;;;10375111;28;20622;-81
2023/12/20 01:25:22;;;;;;;2.33;2.00;;;13.20;99.90;;;;;;10375215;28;20238;-82
2023/12/20 01:30:25;;;;;;;2.10;1.87;;;13.30;99.90;;;;;;10374560;28;20284;-82
2023/12/20 01:35:28;;;;;;;2.30;2.10;;;13.40;99.90;;;;;;10373566;28;20267;-82
2023/12/20 01:40:30;;;;;;;2.87;2.17;;;13.30;99.90;;;;;;10361460;28;20289;-82
2023/12/20 01:45:33;;;;;;;2.20;2.00;;;13.20;99.90;;;;;;10369046;28;20276;-82
2023/12/20 01:50:37;;;;;;;2.53;1.87;;;13.30;99.90;;;;;;10372343;28;20265;-82
2023/12/20 01:55:40;;;;;;;2.60;1.87;;;13.30;99.90;;;;;;10372159;28;20243;-82
2023/12/20 02:00:42;;;;;;;2.53;2.03;;;13.10;99.90;;;;;;10375579;28;20596;-82
2023/12/20 02:05:46;;;;;;;1.50;1.30;;;13.50;99.90;;;;;;10373626;28;20264;-82
2023/12/20 02:10:49;;;;;;;2.57;1.80;;;13.20;99.90;;;;;;10375497;28;20663;-82
2023/12/20 02:15:52;;;;;;;3.77;2.30;;;13.60;99.90;;;;;;10387278;28;20231;-82
2023/12/20 02:20:55;;;;;;;1.70;1.60;;;13.20;99.90;;;;;;10423800;28;20205;-82
2023/12/20 02:25:58;;;;;;;3.17;2.17;;;13.20;99.90;;;;;;10421803;28;20177;-82
2023/12/20 02:31:00;;;;;;;2.13;1.93;;;13.50;99.90;;;;;;10426266;28;20179;-82
2023/12/20 02:36:03;;;;;;;1.53;1.03;;;13.60;99.90;;;;;;10422804;28;20259;-82
2023/12/20 02:41:05;;;;;;;1.60;1.43;;;13.80;99.90;;;;;;10393447;28;20224;-82
2023/12/20 02:46:08;;;;;;;1.97;1.60;;;13.50;99.90;;;;;;10392150;28;20195;-81
2023/12/20 02:51:10;;;;;;;1.60;1.50;;;13.60;99.90;;;;;;10387156;28;20189;-82
2023/12/20 02:56:14;;;;;;;1.50;1.30;;;13.90;99.90;;;;;;10396839;28;20196;-82
2023/12/20 03:01:16;;;;;;;2.33;1.97;;;13.60;99.90;;;;;;10404241;28;20200;-82
2023/12/20 03:06:19;;;;;;;2.57;1.37;;;13.50;99.90;;;;;;10398499;28;20203;-82
2023/12/20 03:11:22;;;;;;;1.50;1.40;;;13.70;99.90;;;;;;10415332;28;20207;-82
2023/12/20 03:16:24;;;;;;;1.20;1.10;;;13.60;99.90;;;;;;10398013;28;20790;-82
2023/12/20 03:21:26;;;;;;;1.47;1.13;;;13.80;99.90;;;;;;10423649;28;20203;-81
2023/12/20 03:26:29;;;;;;;1.40;1.30;;;13.90;99.90;;;;;;10426069;28;20173;-82
2023/12/20 03:31:31;;;;;;;4.57;1.60;;;14.00;99.90;;;;;;10407453;28;20194;-82
2023/12/20 03:36:34;;;;;;;1.67;1.47;;;14.00;99.90;;;;;;10421898;28;20215;-82
2023/12/20 03:41:37;;;;;;;1.40;1.30;;;13.80;99.90;;;;;;10416206;28;20199;-82
2023/12/20 03:46:39;;;;;;;1.70;1.00;;;13.40;99.90;;;;;;10438564;28;20242;-82
2023/12/20 03:51:42;;;;;;;1.60;1.13;;;13.60;99.90;;;;;;10443402;28;20176;-82
2023/12/20 03:56:45;;;;;;;2.27;2.07;;;13.60;99.90;;;;;;10419883;28;20208;-82
2023/12/20 04:01:47;;;;;;;1.93;1.63;;;13.30;99.90;;;;;;10424870;28;20184;-82
2023/12/20 04:06:50;;;;;;;1.30;0.80;;;13.90;99.90;;;;;;10410975;28;20192;-82
2023/12/20 04:11:53;;;;;;;1.40;1.17;;;13.90;99.90;;;;;;10407711;28;20197;-82
2023/12/20 04:16:55;;;;;;;2.60;1.50;;;13.60;99.90;;;;;;10391081;28;20240;-80
2023/12/20 04:21:58;;;;;;;1.50;1.30;;;14.00;99.90;;;;;;10389599;28;20262;-82
2023/12/20 04:27:01;;;;;;;1.97;1.47;;;14.10;99.90;;;;;;10398775;28;20188;-81
2023/12/20 04:32:04;;;;;;;1.70;1.40;;;14.10;99.90;;;;;;10387738;28;20189;-81
2023/12/20 04:37:07;;;;;;;1.70;1.50;;;13.90;99.90;;;;;;10386197;28;20213;-81
2023/12/20 04:42:09;;;;;;;2.73;1.47;;;13.50;99.90;;;;;;10386322;28;20259;-81
2023/12/20 04:47:12;;;;;;;2.43;2.20;;;14.00;99.90;;;;;;10386799;28;20224;-81
2023/12/20 04:52:14;;;;;;;1.30;1.03;;;14.00;99.90;;;;;;10387442;28;20266;-81
2023/12/20 04:57:17;;;;;;;1.17;1.00;;;14.10;99.90;;;;;;10365845;28;20258;-81
2023/12/20 05:02:20;;;;;;;1.53;1.30;;;14.10;99.90;;;;;;10430298;28;20204;-82
2023/12/20 05:07:22;;;;;;;0.70;0.70;;;14.30;99.90;;;;;;10395904;28;20267;-81
2023/12/20 05:12:25;;;;;;;1.80;1.70;;;14.50;99.90;;;;;;10394625;28;20230;-81
2023/12/20 05:17:27;;;;;;;2.07;1.33;;;14.20;99.90;;;;;;10404745;28;20228;-80
2023/12/20 05:22:30;;;;;;;2.27;2.07;;;14.20;99.90;;;;;;10355823;28;20205;-82
2023/12/20 05:27:32;;;;;;;0.90;0.80;;;13.40;99.90;;;;;;10365923;28;20676;-81
2023/12/20 05:32:35;;;;;;;1.40;1.23;;;13.40;99.90;;;;;;10380665;28;20212;-81
2023/12/20 05:37:38;;;;;;;1.60;1.50;;;13.50;99.90;;;;;;10380745;28;20213;-81
2023/12/20 05:42:40;;;;;;;6.40;1.50;;;13.50;99.90;;;;;;10379928;28;20209;-81
2023/12/20 05:47:43;;;;;;;3.03;1.37;;;13.70;99.90;;;;;;10379904;28;20290;-81
2023/12/20 05:52:47;;;;;;;1.67;1.17;;;13.60;99.90;;;;;;10380832;28;20204;-81
2023/12/20 05:57:49;;;;;;;1.30;1.10;;;13.50;99.90;;;;;;10379969;28;20270;-81
2023/12/20 06:02:52;;;;;;;1.50;1.40;;;13.30;99.90;;;;;;10415436;28;20572;-81
2023/12/20 06:07:56;;;;;;;1.37;0.80;;;13.40;99.90;;;;;;10406756;28;20209;-81
2023/12/20 06:13:00;;;;;;;1.07;0.97;;;13.40;99.90;;;;;;10428031;28;20212;-82
2023/12/20 06:18:03;;;;;;;1.73;1.53;;;13.40;99.90;;;;;;10425701;28;20217;-82
2023/12/20 06:23:05;;;;;;;1.40;0.70;;;13.60;99.90;;;;;;10383879;28;20204;-82
2023/12/20 06:28:10;;;;;;;1.30;1.20;;;13.70;99.90;;;;;;10380562;28;20271;-81
2023/12/20 06:33:13;;;;;;;1.47;1.27;;;13.80;99.90;;;;;;10419094;28;20549;-81
2023/12/20 06:38:17;;;;;;;1.40;0.80;;;13.90;99.90;;;;;;10411268;28;20197;-82
2023/12/20 06:43:20;;;;;;;1.63;1.00;;;13.70;99.90;;;;;;10377404;28;20212;-82
2023/12/20 06:48:42;;;;;;;1.07;0.97;;;13.70;99.90;;;;;;10376188;28;20229;-82
2023/12/20 06:53:45;;;;;;;0.70;0.60;;;13.30;99.90;;;;;;10389438;28;20212;-82
2023/12/20 06:58:47;;;;;;;2.13;1.80;;;13.40;99.90;;;;;;10411613;28;20197;-82
2023/12/20 07:03:50;;;;;;;2.17;1.20;;;13.00;99.90;;;;;;10416016;28;20201;-82
2023/12/20 07:08:52;;;;;;;1.87;1.10;;;13.10;99.90;;;;;;10416883;28;20278;-82
2023/12/20 07:13:55;;;;;;;2.70;0.90;;;13.10;99.90;;;;;;10394449;28;20216;-82
2023/12/20 07:18:57;;;;;;;1.20;1.10;;;13.30;99.90;;;;;;10415884;28;20227;-82
2023/12/20 07:24:00;;;;;;;1.00;0.90;;;13.10;99.90;;;;;;10414191;28;20217;-81
2023/12/20 07:29:04;;;;;;;2.00;1.37;;;13.30;99.90;;;;;;10414977;28;20259;-81
2023/12/20 07:34:06;;;;;;;1.30;1.20;;;13.30;99.90;;;;;;10416794;28;20262;-82
2023/12/20 07:39:10;;;;;;;0.70;0.70;;;13.20;99.90;;;;;;10414592;28;20208;-82
2023/12/20 07:44:12;;;;;;;1.40;1.17;;;13.20;99.90;;;;;;10415221;28;20230;-82
2023/12/20 07:49:15;;;;;;;1.83;0.70;;;13.50;99.90;;;;;;10345543;28;20279;-81
2023/12/20 07:54:17;;;;;;;0.90;0.80;;;13.50;99.90;;;;;;10389029;28;20293;-82
2023/12/20 07:59:20;;;;;;;2.77;1.30;;;13.40;99.90;;;;;;10413607;28;20191;-83
2023/12/20 08:04:33;;;;;;;1.93;1.33;;;13.40;99.90;;;;;;10413708;28;20261;-82
2023/12/20 08:09:36;;;;;;;1.50;1.20;;;13.20;99.90;;;;;;10413535;28;20212;-83
2023/12/20 08:14:39;;;;;;;3.10;1.93;;;13.40;99.90;;;;;;10411694;28;20227;-82
2023/12/20 08:19:42;;;;;;;0.87;0.73;;;13.20;99.90;;;;;;10412600;28;20207;-82
2023/12/20 08:24:44;;;;;;;2.83;1.53;;;13.20;99.90;;;;;;10412141;28;20203;-82
2023/12/20 08:29:49;;;;;;;1.17;0.67;;;13.10;99.90;;;;;;10409755;28;20231;-82
2023/12/20 08:34:52;;;;;;;1.90;1.13;;;13.00;99.90;;;;;;10407314;28;20265;-82
2023/12/20 08:39:54;;;;;;;2.40;1.10;;;13.20;99.90;;;;;;10387889;28;20660;-82
2023/12/20 08:45:00;;;;;;;1.03;0.77;;;13.30;99.90;;;;;;10366293;28;20244;-82
2023/12/20 08:50:03;;;;;;;1.03;0.80;;;13.70;99.90;;;;;;10367252;28;20303;-83
2023/12/20 08:55:06;;;;;;;1.63;0.60;;;13.50;99.90;;;;;;10366336;28;20259;-82
2023/12/20 09:00:10;;;;;;;5.83;0.93;;;13.60;99.90;;;;;;10367067;28;20245;-82
2023/12/20 09:05:12;;;;;;;1.00;0.90;;;13.70;99.90;;;;;;10366910;28;20295;-82
2023/12/20 09:10:15;;;;;;;2.73;0.80;;;13.40;99.90;;;;;;10366853;28;20271;-82
2023/12/20 09:15:20;;;;;;;2.50;0.77;;;13.10;99.90;;;;;;10367193;28;20357;-82
2023/12/20 09:20:23;;;;;;;3.03;2.07;;;13.20;99.90;;;;;;10365468;28;20235;-82
2023/12/20 09:25:26;;;;;;;1.23;0.97;;;13.30;99.90;;;;;;10367062;28;20237;-82
2023/12/20 09:30:29;;;;;;;2.67;1.30;;;12.80;99.90;;;;;;10366777;28;20763;-82
2023/12/20 09:35:32;;;;;;;2.73;1.50;;;13.20;99.90;;;;;;10372316;28;20727;-82
2023/12/20 09:40:36;;;;;;;0.67;0.63;;;13.20;99.90;;;;;;10374444;28;20232;-82
2023/12/20 09:45:40;;;;;;;0.50;0.50;;;13.50;99.90;;;;;;10374314;28;20236;-82
2023/12/20 09:50:44;;;;;;;1.27;0.57;;;13.70;99.90;;;;;;10373699;28;20717;-82
2023/12/20 09:55:53;;;;;;;2.80;1.43;;;14.10;99.90;;;;;;10373898;28;20264;-82
2023/12/20 10:00:56;;;;;;;4.20;0.90;;;14.00;99.90;;;;;;10373807;28;20282;-82
2023/12/20 10:06:00;;;;;;;0.90;0.60;;;14.00;99.90;;;;;;10373553;28;20759;-82
2023/12/20 10:11:03;;;;;;;1.70;1.10;;;14.10;99.90;;;;;;10373370;28;20240;-82
2023/12/20 10:16:09;;;;;;;1.30;0.90;;;14.20;99.90;;;;;;10373235;28;20283;-82
2023/12/20 10:21:12;;;;;;;1.70;0.70;;;14.40;99.90;;;;;;10372912;28;20683;-82
2023/12/20 10:26:26;;;;;;;2.83;1.43;;;14.50;99.90;;;;;;10380957;28;20869;-81
2023/12/20 10:31:35;;;;;;;2.20;1.67;;;14.50;99.90;;;;;;10412260;28;20284;-80
2023/12/20 10:36:37;;;;;;;4.37;1.40;;;14.20;99.90;;;;;;10409418;28;20243;-80
2023/12/20 10:41:41;;;;;;;5.67;1.97;;;11.50;99.90;;;;;;10381157;28;20272;-81
2023/12/20 10:46:51;;;;;;;6.80;2.20;;;10.20;99.90;;;;;;10329546;28;20362;-81
2023/12/20 10:51:57;;;;;;;6.60;3.30;;;10.00;99.90;;;;;;10387841;28;20304;-82
2023/12/20 10:57:00;;;;;;;2.40;1.60;;;11.60;99.90;;;;;;10352353;28;20713;-82
2023/12/20 11:02:06;;;;;;;5.17;1.03;;;12.40;99.90;;;;;;10329787;28;20598;-82
2023/12/20 11:07:24;;;;;;;4.57;1.53;;;12.80;99.90;;;;;;10359113;28;20286;-82
2023/12/20 11:12:45;;;;;;;6.00;1.93;;;13.20;99.90;;;;;;10355333;28;20240;-81
2023/12/20 11:17:56;;;;;;;8.47;2.50;;;13.40;99.90;;;;;;10390969;28;20657;-81
2023/12/20 11:22:58;;;;;;;4.63;1.47;;;13.70;99.90;;;;;;10350999;28;20294;-81
2023/12/20 11:28:09;;;;;;;5.27;1.93;;;13.90;99.90;;;;;;10339543;28;20224;-81
2023/12/20 11:33:16;;;;;;;4.33;0.87;;;14.40;99.90;;;;;;10380419;28;20236;-80
2023/12/20 11:38:21;;;;;;;2.60;1.83;;;14.60;99.90;;;;;;10368386;28;20255;-80
2023/12/20 11:43:39;;;;;;;4.27;1.63;;;14.50;99.90;;;;;;10367524;28;20224;-80
2023/12/20 11:48:45;;;;;;;1.97;1.40;;;;;;;;;;10370573;28;20263;-80
2023/12/20 11:53:53;;;;;;;4.70;1.30;;;;;;;;;;10368743;28;20676;-80
2023/12/20 11:58:56;;;;;;;1.50;1.10;;;;;;;;;;10365204;28;20300;-80
2023/12/20 12:04:15;;;;;;;3.80;0.50;;;;;;;;;;10366999;28;20282;-81
2023/12/20 12:09:17;;;;;;;5.37;1.80;;;15.50;99.90;;;;;;10373848;28;20240;-81
2023/12/20 12:14:20;;;;;;;1.93;1.10;;;15.80;99.90;;;;;;10367532;28;20242;-80
2023/12/20 12:19:24;;;;;;;1.53;0.90;;;15.80;99.90;;;;;;10364990;28;20299;-81
2023/12/20 12:24:28;;;;;;;2.90;1.37;;;16.00;99.90;;;;;;10399132;28;20232;-81
2023/12/20 12:29:30;;;;;;;1.30;0.63;;;15.90;99.90;;;;;;10345783;28;20234;-80
2023/12/20 12:34:34;;;;;;;2.27;1.00;;;16.10;99.90;;;;;;10345249;28;20248;-80
2023/12/20 12:39:36;;;;;;;2.23;0.90;;;16.00;99.90;;;;;;10378805;28;20236;-80
2023/12/20 12:44:39;;;;;;;2.50;0.87;;;15.80;99.90;;;;;;10407728;28;20233;-80
2023/12/20 12:49:42;;;;;;;2.40;1.47;;;15.90;99.90;;;;;;10407113;28;20715;-81
2023/12/20 12:54:45;;;;;;;6.77;1.40;;;16.00;99.90;;;;;;10404745;28;20635;-81
2023/12/20 12:59:47;;;;;;;1.73;0.80;;;16.00;99.90;;;;;;10385411;28;20225;-81
2023/12/20 13:04:49;;;;;;;1.20;0.90;;;16.10;99.90;;;;;;10355914;28;20220;-81
2023/12/20 13:09:52;;;;;;;5.50;1.27;;;16.00;99.90;;;;;;10370556;28;20265;-80
2023/12/20 13:14:55;;;;;;;1.53;0.67;;;15.70;99.90;;;;;;10374522;28;20310;-81
2023/12/20 13:25:36;;;;;;;4.77;1.27;;;16.00;99.90;;;;;;6256328;22;20412;-81
2023/12/20 13:30:39;;;;;;;4.83;1.83;;;15.90;99.90;;;;;;10450019;28;20638;-81
2023/12/20 13:35:41;;;;;;;3.10;1.60;;;15.70;99.90;;;;;;10448548;28;20711;-81
2023/12/20 13:40:44;;;;;;;2.33;1.07;;;15.40;99.90;;;;;;10477746;28;20291;-80
2023/12/20 13:45:47;;;;;;;1.70;0.80;;;15.70;99.90;;;;;;10495973;28;20239;-80
2023/12/20 13:50:50;;;;;;;3.50;0.90;;;15.70;99.90;;;;;;10481351;28;20310;-80
2023/12/20 13:55:52;;;;;;;1.73;0.80;;;16.10;99.90;;;;;;10442459;28;20262;-80
2023/12/20 14:00:55;;;;;;;1.03;0.70;;;16.10;99.90;;;;;;10414602;28;20241;-80
2023/12/20 14:05:58;;;;;;;1.13;0.80;;;16.40;99.90;;;;;;10417050;28;20294;-80
2023/12/20 14:11:01;;;;;;;1.20;0.77;;;16.20;99.90;;;;;;10449989;28;20260;-80
2023/12/20 14:16:05;;;;;;;3.70;1.17;;;16.30;99.90;;;;;;10442096;28;20650;-80
2023/12/20 14:21:07;;;;;;;4.53;1.23;;;16.00;99.90;;;;;;10451642;28;20230;-80
2023/12/20 14:26:14;;;;;;;2.50;1.00;;;16.10;99.90;;;;;;10456776;28;20258;-80
2023/12/20 14:31:16;;;;;;;4.53;1.03;;;16.00;99.90;;;;;;10467371;28;20225;-80
2023/12/20 14:36:20;;;;;;;3.43;1.80;;;15.90;99.90;;;;;;10457730;28;20301;-81
2023/12/20 14:41:24;;;;;;;2.07;1.03;;;15.30;99.90;;;;;;10426965;28;20235;-80
2023/12/20 14:46:28;;;;;;;0.70;0.67;;;15.30;99.90;;;;;;10452450;28;20230;-81
2023/12/20 14:51:31;;;;;;;5.47;1.30;;;15.30;99.90;;;;;;10451016;28;20266;-81
2023/12/20 14:56:33;;;;;;;4.57;2.43;;;15.00;99.90;;;;;;10444658;28;20641;-81
2023/12/20 15:01:36;;;;;;;4.10;1.67;;;14.30;99.90;;;;;;10433912;28;20227;-80
2023/12/20 15:06:39;;;;;;;7.00;1.07;;;14.60;99.90;;;;;;10441435;28;20233;-81
2023/12/20 15:11:41;;;;;;;2.07;1.03;;;13.90;99.90;;;;;;10429345;28;20269;-81
2023/12/20 15:16:44;;;;;;;4.00;1.90;;;14.30;99.90;;;;;;10455904;28;20257;-80
2023/12/20 15:21:46;;;;;;;2.03;1.50;;;15.40;99.90;;;;;;10453722;28;20633;-80
2023/12/20 15:26:49;;;;;;;2.40;1.27;;;15.10;99.90;;;;;;10451118;28;20250;-80
2023/12/20 15:31:52;;;;;;;8.27;2.57;;;14.40;99.90;;;;;;10456486;28;20694;-80
2023/12/20 15:36:55;;;;;;;1.10;0.97;;;14.70;99.90;;;;;;10478666;28;20302;-80
2023/12/20 15:41:57;;;;;;;0.90;0.60;;;15.00;99.90;;;;;;10460202;28;20226;-80
2023/12/20 15:47:00;;;;;;;5.53;2.10;;;15.40;99.90;;;;;;10484286;28;20285;-80
2023/12/20 15:52:03;;;;;;;1.70;0.93;;;15.60;99.90;;;;;;10449710;28;20621;-80
2023/12/20 15:57:09;;;;;;;2.67;0.80;;;15.80;99.90;;;;;;10479310;28;20257;-80
2023/12/20 16:02:12;;;;;;;6.93;0.90;;;15.80;99.90;;;;;;10490675;28;20236;-79
2023/12/20 16:07:15;;;;;;;2.33;0.90;;;15.00;99.90;;;;;;10470667;28;20231;-80
2023/12/20 16:12:17;;;;;;;2.47;1.03;;;14.50;99.90;;;;;;10447946;28;20266;-80
2023/12/20 16:17:20;;;;;;;1.50;0.90;;;13.50;99.90;;;;;;10448624;28;20658;-80
2023/12/20 16:22:22;;;;;;;2.67;0.80;;;12.90;99.90;;;;;;10448146;28;20226;-80
2023/12/20 16:27:25;;;;;;;5.93;0.70;;;12.50;99.90;;;;;;10446242;28;20306;-81
2023/12/20 16:32:27;;;;;;;3.10;0.70;;;13.30;99.90;;;;;;10418150;28;20622;-81
2023/12/20 16:37:30;;;;;;;1.37;0.80;;;13.10;99.90;;;;;;10424126;28;20315;-81
2023/12/20 16:42:33;;;;;;;1.63;0.97;;;12.70;99.90;;;;;;10448759;28;20230;-81
2023/12/20 16:47:35;;;;;;;3.00;1.70;;;12.40;99.90;;;;;;10446754;28;20231;-80
2023/12/20 16:52:39;;;;;;;1.90;1.10;;;12.40;99.90;;;;;;10449588;28;20287;-81
2023/12/20 16:57:42;;;;;;;1.70;0.60;;;12.20;99.90;;;;;;10445837;28;20242;-80
2023/12/20 17:02:45;;;;;;;1.90;0.83;;;12.30;99.90;;;;;;10444016;28;20654;-82
2023/12/20 17:07:47;;;;;;;1.27;0.87;;;12.50;99.90;;;;;;10446269;28;20222;-81
2023/12/20 17:12:51;;;;;;;1.73;1.17;;;12.30;99.90;;;;;;10446673;28;20235;-81
2023/12/20 17:17:53;;;;;;;1.43;0.80;;;12.60;99.90;;;;;;10448423;28;20256;-80
2023/12/20 17:22:58;;;;;;;2.57;1.40;;;12.50;99.90;;;;;;10447251;28;20653;-81
2023/12/20 17:28:01;;;;;;;2.43;1.37;;;12.30;99.90;;;;;;10447588;28;20305;-81
2023/12/20 17:33:04;;;;;;;4.00;1.07;;;12.50;99.90;;;;;;10446395;28;20631;-80
2023/12/20 17:38:07;;;;;;;1.33;1.10;;;12.40;99.90;;;;;;10448720;28;20326;-81
2023/12/20 17:43:10;;;;;;;1.93;0.73;;;12.50;99.90;;;;;;10448065;28;20237;-81
2023/12/20 17:48:12;;;;;;;2.60;1.50;;;12.30;99.90;;;;;;10448016;28;20300;-81
2023/12/20 17:53:15;;;;;;;1.73;1.23;;;12.40;99.90;;;;;;10450049;28;20235;-81
2023/12/20 17:58:18;;;;;;;0.70;0.50;;;13.10;99.90;;;;;;10447465;28;20276;-81
2023/12/20 18:03:24;;;;;;;3.50;1.33;;;13.60;99.90;;;;;;10451672;28;20994;-80
2023/12/20 18:08:27;;;;;;;1.23;0.80;;;14.20;99.90;;;;;;10448859;28;20242;-80
2023/12/20 18:13:29;;;;;;;3.67;1.20;;;14.30;99.90;;;;;;10420081;28;20291;-80
2023/12/20 18:18:32;;;;;;;1.37;0.60;;;13.20;99.90;;;;;;10454514;28;20264;-80
2023/12/20 18:23:34;;;;;;;4.50;0.60;;;13.20;99.90;;;;;;10452541;28;20298;-80
2023/12/20 18:28:37;;;;;;;1.27;0.80;;;13.10;99.90;;;;;;10452566;28;20677;-79
2023/12/20 18:33:39;;;;;;;1.47;0.87;;;14.20;99.90;;;;;;10454013;28;20236;-79
2023/12/20 18:38:42;;;;;;;6.00;1.67;;;14.20;99.90;;;;;;10454528;28;20310;-80
2023/12/20 18:43:44;;;;;;;6.53;2.43;;;11.10;99.90;;;;;;10456999;28;20229;-80
2023/12/20 18:48:46;;;;;;;10.40;1.87;;;11.80;99.90;;;;;;10470705;28;20250;-80
2023/12/20 18:53:50;;;;;;;6.50;2.10;;;12.40;99.90;;;;;;10426444;28;20269;-80
2023/12/20 18:58:55;;;;;;;6.20;2.00;;;12.80;99.90;;;;;;10475001;28;20642;-80
2023/12/20 19:03:58;;;;;;;4.07;1.80;;;13.10;99.90;;;;;;10465406;28;20228;-80
2023/12/20 19:09:00;;;;;;;4.40;2.43;;;12.80;99.90;;;;;;10441264;28;20323;-79
2023/12/20 19:14:05;;;;;;;6.30;3.57;;;;;;;;;;10417000;28;20269;-79
2023/12/20 19:19:07;;;;;;;7.67;2.33;;;;;;;;;;10468103;28;20254;-79
2023/12/20 19:24:10;;;;;;;9.03;2.90;;;6.30;99.90;;;;;;10451424;28;20333;-78
2023/12/20 19:29:13;;;;;;;5.97;2.53;;;5.60;99.90;;;;;;10440628;28;20641;-79
2023/12/20 19:34:15;;;;;;;3.23;2.00;;;5.10;99.90;;;;;;10472356;28;20625;-80
2023/12/20 19:39:18;;;;;;;4.23;1.93;;;5.20;99.90;;;;;;10489067;28;20314;-80
2023/12/20 19:44:21;;;;;;;24.03;9.10;;;5.20;99.90;;;;;;10442242;28;20298;-80
2023/12/20 19:49:24;;;;;;;5.37;2.73;;;5.10;99.90;;;;;;10449719;28;20212;-80
2023/12/20 19:54:26;;;;;;;7.07;2.90;;;5.10;99.90;;;;;;10450648;28;20234;-80
2023/12/20 19:59:29;;;;;;;6.47;2.80;;;4.80;99.90;;;;;;10451993;28;20250;-80
2023/12/20 20:04:31;;;;;;;66.80;34.03;;;4.40;99.90;;;;;;10429976;28;20292;-80
2023/12/20 20:09:34;;;;;;;59.43;27.63;;;6.80;99.90;;;;;;10444655;28;20288;-81
2023/12/20 20:14:36;;;;;;;48.47;23.47;;;8.70;99.90;;;;;;10420204;28;20285;-80
2023/12/20 20:19:39;;;;;;;50.13;23.67;;;9.20;99.90;;;;;;10455604;28;20254;-81
2023/12/20 20:24:42;;;;;;;25.63;14.07;;;;;;;;;;10489536;28;20319;-80
2023/12/20 20:29:45;;;;;;;57.67;25.93;;;11.30;99.90;;;;;;10471332;28;20244;-80
2023/12/20 20:34:48;;;;;;;27.23;13.77;;;;;;;;;;10438113;28;20288;-80
2023/12/20 20:39:50;;;;;;;57.50;28.63;;;12.50;99.90;;;;;;10466004;28;20640;-80
2023/12/20 20:44:53;;;;;;;51.47;30.43;;;12.90;99.90;;;;;;9757111;28;10000588;-80
2023/12/20 20:49:55;;;;;;;50.20;27.03;;;13.10;99.90;;;;;;10406085;28;20273;-81
2023/12/20 20:54:58;;;;;;;53.50;27.37;;;13.20;99.90;;;;;;10416969;28;20269;-80
2023/12/20 21:00:01;;;;;;;44.83;21.93;;;13.30;99.90;;;;;;10445275;28;20251;-81
2023/12/20 21:05:04;;;;;;;47.17;24.03;;;13.60;99.90;;;;;;10470053;28;20281;-81
2023/12/20 21:10:09;;;;;;;38.63;19.03;;;;;;;;;;10417119;28;20235;-81
2023/12/20 21:15:14;;;;;;;37.33;18.43;;;13.50;99.90;;;;;;10404777;28;20232;-80
2023/12/20 21:20:16;;;;;;;29.63;17.27;;;14.20;99.90;;;;;;10403070;28;20342;-80
2023/12/20 21:25:20;;;;;;;38.73;17.77;;;14.30;99.90;;;;;;10436002;28;20836;-81
2023/12/20 21:30:22;;;;;;;36.70;19.00;;;13.80;99.90;;;;;;10444525;28;20289;-80
2023/12/20 21:35:25;;;;;;;28.67;14.07;;;13.70;99.90;;;;;;10428072;28;20297;-81
2023/12/20 21:40:29;;;;;;;51.83;24.90;;;13.90;99.90;;;;;;10417630;28;20246;-80
2023/12/20 21:45:31;;;;;;;24.87;15.10;;;14.10;99.90;;;;;;10452397;28;20636;-80
2023/12/20 21:50:36;;;;;;;39.27;19.37;;;14.40;99.90;;;;;;10451598;28;20750;-80
2023/12/20 21:55:41;;;;;;;25.07;14.47;;;14.30;99.90;;;;;;10450415;28;20257;-80
2023/12/20 22:00:43;;;;;;;32.10;17.50;;;14.00;99.90;;;;;;10476870;28;20647;-81
2023/12/20 22:05:46;;;;;;;35.90;18.33;;;13.50;99.90;;;;;;10457133;28;20226;-81
2023/12/20 22:10:49;;;;;;;36.00;21.40;;;13.80;99.90;;;;;;10440014;28;20233;-81
2023/12/20 22:15:52;;;;;;;31.73;17.30;;;14.00;99.90;;;;;;10445930;28;20240;-81
2023/12/20 22:20:54;;;;;;;35.60;18.47;;;13.90;99.90;;;;;;10423916;28;20313;-80
2023/12/20 22:25:57;;;;;;;34.63;18.63;;;13.50;99.90;;;;;;10450668;28;20268;-81
2023/12/20 22:31:00;;;;;;;32.37;19.37;;;13.70;99.90;;;;;;10455972;28;20227;-81
2023/12/20 22:36:03;;;;;;;34.67;21.77;;;13.60;99.90;;;;;;10412955;28;20233;-81
2023/12/20 22:41:09;;;;;;;43.43;23.33;;;13.50;99.90;;;;;;10479622;28;20283;-81
2023/12/20 22:46:12;;;;;;;33.07;15.73;;;13.50;99.90;;;;;;10454683;28;20231;-81
2023/12/20 22:51:16;;;;;;;41.23;21.47;;;13.30;99.90;;;;;;10436721;28;20268;-81
2023/12/20 22:56:19;;;;;;;25.43;13.20;;;13.70;99.90;;;;;;10452544;28;20238;-81
2023/12/20 23:01:21;;;;;;;30.97;15.17;;;13.30;99.90;;;;;;10442734;28;20284;-81
2023/12/20 23:06:24;;;;;;;28.93;15.80;;;13.40;99.90;;;;;;10470334;28;20229;-81
2023/12/20 23:11:27;;;;;;;18.03;9.83;;;13.60;99.90;;;;;;10493675;28;20256;-81
2023/12/20 23:16:29;;;;;;;34.27;19.07;;;14.00;99.90;;;;;;10492590;28;20260;-81
2023/12/20 23:21:32;;;;;;;28.40;15.37;;;14.30;99.90;;;;;;10450727;28;20784;-81
2023/12/20 23:26:34;;;;;;;27.80;15.53;;;14.10;99.90;;;;;;10440911;28;20262;-81
2023/12/20 23:31:37;;;;;;;29.00;16.23;;;13.80;99.90;;;;;;10441923;28;20677;-81
2023/12/20 23:36:40;;;;;;;19.63;10.87;;;13.20;99.90;;;;;;10451759;28;20296;-81
2023/12/20 23:41:42;;;;;;;27.20;16.20;;;13.00;99.90;;;;;;10451298;28;20254;-81
2023/12/20 23:46:44;;;;;;;20.50;13.13;;;12.70;99.90;;;;;;10451308;28;20248;-81
2023/12/20 23:51:48;;;;;;;30.50;19.00;;;13.00;99.90;;;;;;10450518;28;20242;-81
2023/12/20 23:56:50;;;;;;;20.90;12.63;;;13.10;99.90;;;;;;10450520;28;20692;-81
